BAW82 DNAA-EGLL
Flight info
| Callsign | BAW82 |
|---|---|
| Flight time | 5h 50m |
| Altitude | 37000 |
| Route | OXORU1Q OXORU V456 KUA R778 KAN A604 MIMBA UA604 TMS UA615 GHA UB726 BSA UJ66 ALR UG30 SADAF N856 UMURE N863 GIROM DCT AGN DCT SECHE DCT UVELI DCT CNA DCT MANAK UY110 REVTU UP87 ROXOG |
| Aircraft | B772/H-SDE2E3FGHIJ5LORVWXY/LB1D1 |
Departure
| Time | 2026-04-11 08:37 |
|---|---|
| Airport | Nnamdi Azikiwe International Airport (DNAA) |
Arrival
| Time | 2026-04-11 14:27 |
|---|---|
| Airport | London Heathrow Airport (EGLL) |
| Time | Latitude | Longitude | Altitude | Speed | Heading |
|---|---|---|---|---|---|
| 2026-04-11 08:25 | 9.00327 | 7.26933 | 1134 ft | 2 kts | 59° |
| 2026-04-11 08:26 | 9.00320 | 7.26920 | 1133 ft | 2 kts | 59° |
| 2026-04-11 08:26 | 9.00315 | 7.26912 | 1133 ft | 2 kts | 56° |
| 2026-04-11 08:26 | 9.00304 | 7.26905 | 1132 ft | 2 kts | 354° |
| 2026-04-11 08:26 | 9.00296 | 7.26907 | 1132 ft | 1 kts | 327° |
| 2026-04-11 08:27 | 9.00293 | 7.26909 | 1132 ft | 0 kts | 328° |
| 2026-04-11 08:28 | 9.00298 | 7.26906 | 1132 ft | 4 kts | 328° |
| 2026-04-11 08:29 | 9.00335 | 7.26883 | 1132 ft | 6 kts | 326° |
| 2026-04-11 08:29 | 9.00363 | 7.26839 | 1130 ft | 9 kts | 274° |
| 2026-04-11 08:29 | 9.00335 | 7.26766 | 1126 ft | 12 kts | 254° |
| 2026-04-11 08:29 | 9.00384 | 7.26681 | 1122 ft | 15 kts | 327° |
| 2026-04-11 08:30 | 9.00478 | 7.26626 | 1122 ft | 15 kts | 329° |
| 2026-04-11 08:30 | 9.00542 | 7.26583 | 1123 ft | 7 kts | 316° |
| 2026-04-11 08:30 | 9.00575 | 7.26542 | 1122 ft | 7 kts | 307° |
| 2026-04-11 08:30 | 9.00628 | 7.26513 | 1123 ft | 11 kts | 355° |
| 2026-04-11 08:31 | 9.00714 | 7.26549 | 1125 ft | 13 kts | 31° |
| 2026-04-11 08:31 | 9.00786 | 7.26598 | 1127 ft | 11 kts | 35° |
| 2026-04-11 08:31 | 9.00855 | 7.26646 | 1127 ft | 12 kts | 35° |
| 2026-04-11 08:31 | 9.00922 | 7.26694 | 1128 ft | 11 kts | 35° |
| 2026-04-11 08:32 | 9.00982 | 7.26736 | 1129 ft | 10 kts | 35° |
| 2026-04-11 08:32 | 9.01045 | 7.26780 | 1129 ft | 11 kts | 35° |
| 2026-04-11 08:32 | 9.01109 | 7.26826 | 1128 ft | 11 kts | 36° |
| 2026-04-11 08:32 | 9.01175 | 7.26874 | 1129 ft | 11 kts | 36° |
| 2026-04-11 08:33 | 9.01239 | 7.26918 | 1130 ft | 10 kts | 35° |
| 2026-04-11 08:33 | 9.01305 | 7.26965 | 1128 ft | 12 kts | 34° |
| 2026-04-11 08:33 | 9.01381 | 7.27017 | 1127 ft | 13 kts | 34° |
| 2026-04-11 08:33 | 9.01458 | 7.27071 | 1127 ft | 13 kts | 36° |
| 2026-04-11 08:34 | 9.01535 | 7.27127 | 1127 ft | 13 kts | 36° |
| 2026-04-11 08:34 | 9.01613 | 7.27183 | 1127 ft | 13 kts | 35° |
| 2026-04-11 08:34 | 9.01692 | 7.27240 | 1127 ft | 13 kts | 35° |
| 2026-04-11 08:34 | 9.01767 | 7.27292 | 1128 ft | 12 kts | 35° |
| 2026-04-11 08:35 | 9.01837 | 7.27341 | 1129 ft | 12 kts | 32° |
| 2026-04-11 08:35 | 9.01916 | 7.27356 | 1129 ft | 11 kts | 332° |
| 2026-04-11 08:35 | 9.01961 | 7.27309 | 1129 ft | 8 kts | 310° |
| 2026-04-11 08:35 | 9.01987 | 7.27261 | 1128 ft | 5 kts | 259° |
| 2026-04-11 08:36 | 9.01957 | 7.27221 | 1127 ft | 8 kts | 220° |
| 2026-04-11 08:36 | 9.01873 | 7.27159 | 1125 ft | 31 kts | 215° |
| 2026-04-11 08:36 | 9.01510 | 7.26904 | 1121 ft | 93 kts | 213° |
| 2026-04-11 08:36 | 9.00820 | 7.26419 | 1125 ft | 146 kts | 216° |
| 2026-04-11 08:37 | 8.99900 | 7.25754 | 1288 ft | 168 kts | 215° |
| 2026-04-11 08:37 | 8.98986 | 7.25132 | 1918 ft | 157 kts | 214° |
| 2026-04-11 08:37 | 8.98071 | 7.24495 | 2300 ft | 165 kts | 217° |
| 2026-04-11 08:37 | 8.97090 | 7.23774 | 2484 ft | 183 kts | 216° |
| 2026-04-11 08:38 | 8.96187 | 7.22803 | 2680 ft | 200 kts | 243° |
| 2026-04-11 08:38 | 8.95790 | 7.21398 | 2914 ft | 217 kts | 270° |
| 2026-04-11 08:38 | 8.96133 | 7.19910 | 3351 ft | 222 kts | 300° |
| 2026-04-11 08:38 | 8.97176 | 7.18743 | 3700 ft | 233 kts | 329° |
| 2026-04-11 08:39 | 8.98708 | 7.18144 | 4178 ft | 237 kts | 345° |
| 2026-04-11 08:39 | 9.00288 | 7.17705 | 4747 ft | 239 kts | 346° |
| 2026-04-11 08:39 | 9.01905 | 7.17262 | 4933 ft | 240 kts | 347° |
| 2026-04-11 08:39 | 9.03524 | 7.16820 | 4955 ft | 239 kts | 347° |
| 2026-04-11 08:40 | 9.05138 | 7.16378 | 4957 ft | 238 kts | 347° |
| 2026-04-11 08:40 | 9.06739 | 7.15940 | 4962 ft | 238 kts | 347° |
| 2026-04-11 08:40 | 9.08356 | 7.15498 | 4960 ft | 238 kts | 347° |
| 2026-04-11 08:40 | 9.09971 | 7.15056 | 4959 ft | 238 kts | 347° |
| 2026-04-11 08:41 | 9.11579 | 7.14616 | 4962 ft | 238 kts | 347° |
| 2026-04-11 08:41 | 9.13171 | 7.14181 | 4961 ft | 238 kts | 347° |
| 2026-04-11 08:41 | 9.14809 | 7.13871 | 4955 ft | 236 kts | 5° |
| 2026-04-11 08:41 | 9.16456 | 7.14186 | 5029 ft | 252 kts | 17° |
| 2026-04-11 08:42 | 9.18190 | 7.14731 | 5389 ft | 265 kts | 19° |
| 2026-04-11 08:42 | 9.19954 | 7.15311 | 6016 ft | 267 kts | 20° |
| 2026-04-11 08:42 | 9.21713 | 7.15887 | 6666 ft | 267 kts | 20° |
| 2026-04-11 08:43 | 9.25274 | 7.17051 | 7858 ft | 271 kts | 20° |
| 2026-04-11 08:43 | 9.27085 | 7.17642 | 8425 ft | 274 kts | 20° |
| 2026-04-11 08:43 | 9.28883 | 7.18229 | 9022 ft | 274 kts | 20° |
| 2026-04-11 08:43 | 9.30716 | 7.18827 | 9630 ft | 275 kts | 21° |
| 2026-04-11 08:44 | 9.32551 | 7.19427 | 10188 ft | 277 kts | 21° |
| 2026-04-11 08:44 | 9.34426 | 7.20041 | 10407 ft | 293 kts | 20° |
| 2026-04-11 08:44 | 9.36421 | 7.20694 | 10605 ft | 309 kts | 20° |
| 2026-04-11 08:44 | 9.38543 | 7.21387 | 10810 ft | 324 kts | 20° |
| 2026-04-11 08:45 | 9.40737 | 7.22104 | 10960 ft | 340 kts | 20° |
| 2026-04-11 08:45 | 9.43066 | 7.22866 | 11111 ft | 355 kts | 20° |
| 2026-04-11 08:45 | 9.45474 | 7.23652 | 11320 ft | 365 kts | 20° |
| 2026-04-11 08:45 | 9.47900 | 7.24444 | 11782 ft | 368 kts | 20° |
| 2026-04-11 08:46 | 9.50361 | 7.25248 | 12314 ft | 369 kts | 20° |
| 2026-04-11 08:46 | 9.52816 | 7.26050 | 12799 ft | 371 kts | 20° |
| 2026-04-11 08:46 | 9.55273 | 7.26853 | 13229 ft | 374 kts | 20° |
| 2026-04-11 08:46 | 9.57790 | 7.27676 | 13654 ft | 378 kts | 20° |
| 2026-04-11 08:47 | 9.60313 | 7.28501 | 14075 ft | 381 kts | 20° |
| 2026-04-11 08:47 | 9.62831 | 7.29325 | 14478 ft | 385 kts | 20° |
| 2026-04-11 08:47 | 9.65395 | 7.30164 | 14905 ft | 387 kts | 21° |
| 2026-04-11 08:47 | 9.67985 | 7.31012 | 15302 ft | 391 kts | 21° |
| 2026-04-11 08:48 | 9.70584 | 7.31863 | 15675 ft | 395 kts | 21° |
| 2026-04-11 08:48 | 9.73214 | 7.32724 | 16052 ft | 399 kts | 21° |
| 2026-04-11 08:48 | 9.75869 | 7.33593 | 16453 ft | 401 kts | 21° |
| 2026-04-11 08:48 | 9.78545 | 7.34470 | 16831 ft | 405 kts | 21° |
| 2026-04-11 08:49 | 9.81238 | 7.35352 | 17186 ft | 408 kts | 21° |
| 2026-04-11 08:49 | 9.83975 | 7.36249 | 17563 ft | 412 kts | 21° |
| 2026-04-11 08:49 | 9.86760 | 7.37027 | 17933 ft | 418 kts | 14° |
| 2026-04-11 08:49 | 9.89664 | 7.37429 | 18301 ft | 423 kts | 9° |
| 2026-04-11 08:50 | 9.92619 | 7.37738 | 18687 ft | 425 kts | 9° |
| 2026-04-11 08:50 | 9.95585 | 7.38044 | 19106 ft | 427 kts | 8° |
| 2026-04-11 08:50 | 9.98523 | 7.38348 | 19494 ft | 429 kts | 8° |
| 2026-04-11 08:50 | 10.01507 | 7.38659 | 19852 ft | 432 kts | 8° |
| 2026-04-11 08:51 | 10.04521 | 7.38973 | 20209 ft | 435 kts | 8° |
| 2026-04-11 08:51 | 10.07554 | 7.39289 | 20603 ft | 437 kts | 7° |
| 2026-04-11 08:51 | 10.10607 | 7.39608 | 20960 ft | 440 kts | 7° |
| 2026-04-11 08:51 | 10.13664 | 7.39928 | 21326 ft | 442 kts | 7° |
| 2026-04-11 08:52 | 10.19799 | 7.40570 | 22046 ft | 446 kts | 6° |
| 2026-04-11 08:52 | 10.22949 | 7.40900 | 22390 ft | 448 kts | 6° |
| 2026-04-11 08:52 | 10.26030 | 7.41223 | 22757 ft | 450 kts | 6° |
| 2026-04-11 08:53 | 10.29179 | 7.41553 | 23100 ft | 452 kts | 6° |
| 2026-04-11 08:53 | 10.32337 | 7.41884 | 23457 ft | 454 kts | 6° |
| 2026-04-11 08:53 | 10.35488 | 7.42215 | 23803 ft | 455 kts | 6° |
| 2026-04-11 08:53 | 10.38646 | 7.42546 | 24142 ft | 457 kts | 5° |
| 2026-04-11 08:54 | 10.41818 | 7.42879 | 24463 ft | 459 kts | 5° |
| 2026-04-11 08:54 | 10.45008 | 7.43214 | 24742 ft | 461 kts | 5° |
| 2026-04-11 08:54 | 10.48220 | 7.43551 | 25005 ft | 464 kts | 5° |
| 2026-04-11 08:54 | 10.51443 | 7.43890 | 25324 ft | 465 kts | 5° |
| 2026-04-11 08:55 | 10.54677 | 7.44254 | 25620 ft | 467 kts | 8° |
| 2026-04-11 08:55 | 10.57847 | 7.44978 | 25883 ft | 470 kts | 16° |
| 2026-04-11 08:55 | 10.60899 | 7.46170 | 26146 ft | 473 kts | 24° |
| 2026-04-11 08:55 | 10.63784 | 7.47826 | 26381 ft | 477 kts | 32° |
| 2026-04-11 08:56 | 10.66508 | 7.49772 | 26618 ft | 480 kts | 34° |
| 2026-04-11 08:56 | 10.69223 | 7.51764 | 26863 ft | 482 kts | 34° |
| 2026-04-11 08:56 | 10.71942 | 7.53761 | 27096 ft | 484 kts | 34° |
| 2026-04-11 08:56 | 10.74686 | 7.55776 | 27331 ft | 486 kts | 34° |
| 2026-04-11 08:57 | 10.77439 | 7.57795 | 27570 ft | 487 kts | 34° |
| 2026-04-11 08:57 | 10.80188 | 7.59812 | 27812 ft | 489 kts | 34° |
| 2026-04-11 08:57 | 10.82948 | 7.61837 | 28033 ft | 491 kts | 34° |
| 2026-04-11 08:57 | 10.85723 | 7.63873 | 28233 ft | 493 kts | 34° |
| 2026-04-11 08:58 | 10.88537 | 7.65937 | 28440 ft | 495 kts | 34° |
| 2026-04-11 08:58 | 10.91343 | 7.67996 | 28641 ft | 496 kts | 34° |
| 2026-04-11 08:58 | 10.94122 | 7.70035 | 28873 ft | 497 kts | 34° |
| 2026-04-11 08:58 | 10.96945 | 7.72107 | 29085 ft | 499 kts | 34° |
| 2026-04-11 08:59 | 10.99775 | 7.74185 | 29301 ft | 500 kts | 34° |
| 2026-04-11 08:59 | 11.02581 | 7.76246 | 29513 ft | 501 kts | 34° |
| 2026-04-11 08:59 | 11.05410 | 7.78324 | 29718 ft | 502 kts | 34° |
| 2026-04-11 08:59 | 11.08257 | 7.80415 | 29926 ft | 504 kts | 34° |
| 2026-04-11 09:00 | 11.11120 | 7.82519 | 30182 ft | 504 kts | 34° |
| 2026-04-11 09:00 | 11.13950 | 7.84599 | 30503 ft | 502 kts | 34° |
| 2026-04-11 09:00 | 11.16781 | 7.86680 | 30804 ft | 501 kts | 34° |
| 2026-04-11 09:00 | 11.19617 | 7.88765 | 31089 ft | 501 kts | 34° |
| 2026-04-11 09:01 | 11.22454 | 7.90852 | 31355 ft | 500 kts | 34° |
| 2026-04-11 09:01 | 11.25253 | 7.92911 | 31631 ft | 500 kts | 34° |
| 2026-04-11 09:01 | 11.28087 | 7.94984 | 31893 ft | 499 kts | 33° |
| 2026-04-11 09:01 | 11.30927 | 7.97032 | 32169 ft | 498 kts | 33° |
| 2026-04-11 09:02 | 11.33769 | 7.99079 | 32455 ft | 497 kts | 33° |
| 2026-04-11 09:02 | 11.36589 | 8.01111 | 32694 ft | 497 kts | 33° |
| 2026-04-11 09:02 | 11.39421 | 8.03153 | 32921 ft | 497 kts | 33° |
| 2026-04-11 09:02 | 11.42250 | 8.05194 | 33160 ft | 497 kts | 33° |
| 2026-04-11 09:03 | 11.45101 | 8.07252 | 33421 ft | 497 kts | 33° |
| 2026-04-11 09:03 | 11.47910 | 8.09280 | 33676 ft | 497 kts | 33° |
| 2026-04-11 09:03 | 11.50764 | 8.11342 | 33865 ft | 499 kts | 33° |
| 2026-04-11 09:03 | 11.53586 | 8.13381 | 34088 ft | 499 kts | 33° |
| 2026-04-11 09:04 | 11.56406 | 8.15420 | 34405 ft | 498 kts | 33° |
| 2026-04-11 09:04 | 11.59246 | 8.17473 | 34756 ft | 496 kts | 33° |
| 2026-04-11 09:04 | 11.62063 | 8.19511 | 35060 ft | 495 kts | 34° |
| 2026-04-11 09:04 | 11.64857 | 8.21532 | 35305 ft | 495 kts | 33° |
| 2026-04-11 09:05 | 11.67676 | 8.23572 | 35480 ft | 496 kts | 33° |
| 2026-04-11 09:05 | 11.70500 | 8.25616 | 35646 ft | 497 kts | 34° |
| 2026-04-11 09:05 | 11.73313 | 8.27653 | 35832 ft | 497 kts | 34° |
| 2026-04-11 09:05 | 11.76139 | 8.29699 | 36065 ft | 497 kts | 33° |
| 2026-04-11 09:06 | 11.78929 | 8.31721 | 36267 ft | 496 kts | 33° |
| 2026-04-11 09:06 | 11.81756 | 8.33769 | 36397 ft | 497 kts | 33° |
| 2026-04-11 09:06 | 11.84573 | 8.35811 | 36545 ft | 498 kts | 33° |
| 2026-04-11 09:06 | 11.87408 | 8.37866 | 36697 ft | 498 kts | 34° |
| 2026-04-11 09:07 | 11.90241 | 8.39921 | 36873 ft | 497 kts | 34° |
| 2026-04-11 09:07 | 11.93054 | 8.41961 | 37053 ft | 496 kts | 34° |
| 2026-04-11 09:07 | 11.98770 | 8.45927 | 37054 ft | 494 kts | 26° |
| 2026-04-11 09:08 | 12.05196 | 8.48353 | 37042 ft | 489 kts | 8° |
| 2026-04-11 09:08 | 12.11929 | 8.48686 | 37045 ft | 484 kts | 353° |
| 2026-04-11 09:09 | 12.18638 | 8.48081 | 37042 ft | 483 kts | 352° |
| 2026-04-11 09:09 | 12.25354 | 8.47438 | 37041 ft | 483 kts | 352° |
| 2026-04-11 09:10 | 12.32032 | 8.46791 | 37040 ft | 483 kts | 352° |
| 2026-04-11 09:10 | 12.38759 | 8.46133 | 37042 ft | 482 kts | 352° |
| 2026-04-11 09:11 | 12.45450 | 8.45475 | 37041 ft | 482 kts | 352° |
| 2026-04-11 09:11 | 12.52118 | 8.44819 | 37040 ft | 482 kts | 352° |
| 2026-04-11 09:12 | 12.58835 | 8.44155 | 37042 ft | 483 kts | 352° |
| 2026-04-11 09:12 | 12.65552 | 8.43492 | 37042 ft | 482 kts | 352° |
| 2026-04-11 09:13 | 12.72215 | 8.42833 | 37044 ft | 483 kts | 352° |
| 2026-04-11 09:13 | 12.78928 | 8.42169 | 37043 ft | 481 kts | 352° |
| 2026-04-11 09:14 | 12.85610 | 8.41506 | 37045 ft | 482 kts | 352° |
| 2026-04-11 09:14 | 12.92301 | 8.40842 | 37046 ft | 481 kts | 352° |
| 2026-04-11 09:15 | 12.98984 | 8.40178 | 37047 ft | 481 kts | 351° |
| 2026-04-11 09:15 | 13.05650 | 8.39516 | 37046 ft | 482 kts | 351° |
| 2026-04-11 09:16 | 13.12370 | 8.38865 | 37045 ft | 482 kts | 352° |
| 2026-04-11 09:16 | 13.19063 | 8.38244 | 37046 ft | 481 kts | 352° |
| 2026-04-11 09:17 | 13.25716 | 8.37625 | 37049 ft | 480 kts | 352° |
| 2026-04-11 09:17 | 13.32382 | 8.37003 | 37048 ft | 481 kts | 351° |
| 2026-04-11 09:18 | 13.39060 | 8.36380 | 37049 ft | 481 kts | 351° |
| 2026-04-11 09:18 | 13.45700 | 8.35759 | 37051 ft | 481 kts | 351° |
| 2026-04-11 09:19 | 13.52422 | 8.35130 | 37054 ft | 480 kts | 351° |
| 2026-04-11 09:19 | 13.59050 | 8.34510 | 37054 ft | 479 kts | 351° |
| 2026-04-11 09:20 | 13.65698 | 8.33888 | 37057 ft | 478 kts | 351° |
| 2026-04-11 09:20 | 13.72358 | 8.33263 | 37055 ft | 479 kts | 351° |
| 2026-04-11 09:21 | 13.78965 | 8.32644 | 37060 ft | 478 kts | 351° |
| 2026-04-11 09:21 | 13.85579 | 8.32021 | 37058 ft | 476 kts | 351° |
| 2026-04-11 09:22 | 13.92224 | 8.31395 | 37054 ft | 477 kts | 351° |
| 2026-04-11 09:22 | 13.98836 | 8.30773 | 37056 ft | 475 kts | 351° |
| 2026-04-11 09:23 | 14.05443 | 8.30150 | 37051 ft | 476 kts | 351° |
| 2026-04-11 09:23 | 14.12029 | 8.29529 | 37043 ft | 476 kts | 351° |
| 2026-04-11 09:24 | 14.18657 | 8.28904 | 37043 ft | 475 kts | 351° |
| 2026-04-11 09:24 | 14.25220 | 8.28284 | 37043 ft | 476 kts | 351° |
| 2026-04-11 09:25 | 14.31863 | 8.27657 | 37043 ft | 476 kts | 351° |
| 2026-04-11 09:25 | 14.38469 | 8.27033 | 37043 ft | 476 kts | 351° |
| 2026-04-11 09:26 | 14.45066 | 8.26409 | 37041 ft | 476 kts | 351° |
| 2026-04-11 09:26 | 14.51658 | 8.25785 | 37041 ft | 476 kts | 351° |
| 2026-04-11 09:27 | 14.58275 | 8.25159 | 37043 ft | 475 kts | 351° |
| 2026-04-11 09:27 | 14.64890 | 8.24532 | 37049 ft | 477 kts | 351° |
| 2026-04-11 09:28 | 14.71511 | 8.23905 | 37052 ft | 476 kts | 351° |
| 2026-04-11 09:28 | 14.78116 | 8.23279 | 37056 ft | 475 kts | 351° |
| 2026-04-11 09:29 | 14.84718 | 8.22652 | 37053 ft | 476 kts | 351° |
| 2026-04-11 09:29 | 14.91316 | 8.22025 | 37055 ft | 476 kts | 351° |
| 2026-04-11 09:30 | 14.97916 | 8.21398 | 37058 ft | 476 kts | 351° |
| 2026-04-11 09:30 | 15.04532 | 8.20770 | 37057 ft | 476 kts | 351° |
| 2026-04-11 09:31 | 15.11133 | 8.20143 | 37062 ft | 475 kts | 351° |
| 2026-04-11 09:31 | 15.17755 | 8.19516 | 37064 ft | 476 kts | 351° |
| 2026-04-11 09:32 | 15.24367 | 8.18889 | 37063 ft | 476 kts | 350° |
| 2026-04-11 09:32 | 15.30959 | 8.18263 | 37064 ft | 475 kts | 350° |
| 2026-04-11 09:33 | 15.37580 | 8.17635 | 37064 ft | 474 kts | 350° |
| 2026-04-11 09:33 | 15.44180 | 8.17007 | 37063 ft | 475 kts | 350° |
| 2026-04-11 09:34 | 15.50737 | 8.16384 | 37066 ft | 475 kts | 350° |
| 2026-04-11 09:34 | 15.57342 | 8.15756 | 37065 ft | 475 kts | 350° |
| 2026-04-11 09:35 | 15.63926 | 8.15129 | 37067 ft | 476 kts | 350° |
| 2026-04-11 09:35 | 15.70547 | 8.14498 | 37065 ft | 474 kts | 350° |
| 2026-04-11 09:36 | 15.77169 | 8.13867 | 37067 ft | 476 kts | 350° |
| 2026-04-11 09:36 | 15.83732 | 8.13241 | 37067 ft | 473 kts | 350° |
| 2026-04-11 09:37 | 15.90331 | 8.12611 | 37066 ft | 473 kts | 350° |
| 2026-04-11 09:37 | 15.96879 | 8.11986 | 37067 ft | 473 kts | 349° |
| 2026-04-11 09:38 | 16.03461 | 8.11357 | 37069 ft | 474 kts | 350° |
| 2026-04-11 09:38 | 16.10029 | 8.10729 | 37068 ft | 474 kts | 349° |
| 2026-04-11 09:39 | 16.16599 | 8.10100 | 37069 ft | 474 kts | 349° |
| 2026-04-11 09:39 | 16.23171 | 8.09471 | 37069 ft | 473 kts | 349° |
| 2026-04-11 09:40 | 16.29745 | 8.08841 | 37071 ft | 474 kts | 349° |
| 2026-04-11 09:40 | 16.36333 | 8.08209 | 37071 ft | 471 kts | 349° |
| 2026-04-11 09:41 | 16.42873 | 8.07582 | 37070 ft | 471 kts | 349° |
| 2026-04-11 09:41 | 16.49420 | 8.06953 | 37070 ft | 472 kts | 349° |
| 2026-04-11 09:42 | 16.55972 | 8.06324 | 37070 ft | 470 kts | 349° |
| 2026-04-11 09:43 | 16.65775 | 8.05380 | 37073 ft | 471 kts | 349° |
| 2026-04-11 09:43 | 16.72340 | 8.04748 | 37074 ft | 472 kts | 349° |
| 2026-04-11 09:44 | 16.78841 | 8.04123 | 37077 ft | 470 kts | 349° |
| 2026-04-11 09:44 | 16.85371 | 8.03493 | 37069 ft | 471 kts | 349° |
| 2026-04-11 09:45 | 16.91919 | 8.02862 | 37061 ft | 468 kts | 349° |
| 2026-04-11 09:45 | 16.98298 | 8.01792 | 37060 ft | 460 kts | 337° |
| 2026-04-11 09:46 | 17.04211 | 7.99343 | 37066 ft | 456 kts | 332° |
| 2026-04-11 09:46 | 17.10053 | 7.96744 | 37071 ft | 455 kts | 331° |
| 2026-04-11 09:47 | 17.15883 | 7.94148 | 37071 ft | 455 kts | 331° |
| 2026-04-11 09:47 | 17.21706 | 7.91554 | 37076 ft | 455 kts | 331° |
| 2026-04-11 09:48 | 17.27527 | 7.88960 | 37075 ft | 454 kts | 331° |
| 2026-04-11 09:48 | 17.33373 | 7.86352 | 37074 ft | 454 kts | 331° |
| 2026-04-11 09:49 | 17.39172 | 7.83764 | 37072 ft | 454 kts | 331° |
| 2026-04-11 09:49 | 17.44984 | 7.81169 | 37070 ft | 453 kts | 331° |
| 2026-04-11 09:50 | 17.50815 | 7.78563 | 37068 ft | 453 kts | 331° |
| 2026-04-11 09:50 | 17.56608 | 7.75972 | 37064 ft | 453 kts | 331° |
| 2026-04-11 09:51 | 17.62397 | 7.73382 | 37066 ft | 452 kts | 331° |
| 2026-04-11 09:51 | 17.68182 | 7.70791 | 37065 ft | 452 kts | 331° |
| 2026-04-11 09:52 | 17.73982 | 7.68191 | 37066 ft | 453 kts | 330° |
| 2026-04-11 09:52 | 17.79807 | 7.65580 | 37063 ft | 452 kts | 331° |
| 2026-04-11 09:53 | 17.85584 | 7.62987 | 37062 ft | 453 kts | 330° |
| 2026-04-11 09:53 | 17.91347 | 7.60399 | 37058 ft | 451 kts | 330° |
| 2026-04-11 09:54 | 17.97166 | 7.57784 | 37064 ft | 451 kts | 330° |
| 2026-04-11 09:54 | 18.02907 | 7.55202 | 37058 ft | 451 kts | 330° |
| 2026-04-11 09:55 | 18.08694 | 7.52597 | 37055 ft | 452 kts | 330° |
| 2026-04-11 09:55 | 18.14506 | 7.49979 | 37053 ft | 452 kts | 330° |
| 2026-04-11 09:56 | 18.20299 | 7.47368 | 37056 ft | 452 kts | 330° |
| 2026-04-11 09:56 | 18.26054 | 7.44773 | 37055 ft | 451 kts | 330° |
| 2026-04-11 09:57 | 18.31847 | 7.42158 | 37051 ft | 451 kts | 330° |
| 2026-04-11 09:57 | 18.37608 | 7.39556 | 37054 ft | 451 kts | 330° |
| 2026-04-11 09:58 | 18.43372 | 7.36951 | 37053 ft | 451 kts | 330° |
| 2026-04-11 09:58 | 18.49173 | 7.34326 | 37071 ft | 451 kts | 330° |
| 2026-04-11 09:59 | 18.54909 | 7.31730 | 37077 ft | 450 kts | 329° |
| 2026-04-11 09:59 | 18.60688 | 7.29112 | 37073 ft | 451 kts | 329° |
| 2026-04-11 10:00 | 18.66437 | 7.26506 | 37075 ft | 450 kts | 329° |
| 2026-04-11 10:00 | 18.72224 | 7.23880 | 37069 ft | 451 kts | 329° |
| 2026-04-11 10:01 | 18.77976 | 7.21268 | 37070 ft | 452 kts | 329° |
| 2026-04-11 10:01 | 18.83764 | 7.18638 | 37065 ft | 450 kts | 329° |
| 2026-04-11 10:02 | 18.89521 | 7.16021 | 37065 ft | 450 kts | 329° |
| 2026-04-11 10:02 | 18.95295 | 7.13393 | 37060 ft | 451 kts | 329° |
| 2026-04-11 10:03 | 19.01060 | 7.10768 | 37062 ft | 451 kts | 329° |
| 2026-04-11 10:03 | 19.06811 | 7.08147 | 37062 ft | 451 kts | 329° |
| 2026-04-11 10:04 | 19.12619 | 7.05497 | 37059 ft | 452 kts | 329° |
| 2026-04-11 10:04 | 19.18382 | 7.02867 | 37053 ft | 451 kts | 329° |
| 2026-04-11 10:05 | 19.24158 | 7.00228 | 37048 ft | 452 kts | 329° |
| 2026-04-11 10:05 | 19.29936 | 6.97587 | 37047 ft | 451 kts | 329° |
| 2026-04-11 10:06 | 19.35710 | 6.94945 | 37049 ft | 452 kts | 329° |
| 2026-04-11 10:06 | 19.41482 | 6.92302 | 37046 ft | 452 kts | 329° |
| 2026-04-11 10:07 | 19.47258 | 6.89656 | 37047 ft | 450 kts | 329° |
| 2026-04-11 10:07 | 19.53013 | 6.87017 | 37052 ft | 451 kts | 329° |
| 2026-04-11 10:08 | 19.58729 | 6.84394 | 37056 ft | 449 kts | 329° |
| 2026-04-11 10:08 | 19.64485 | 6.81750 | 37056 ft | 449 kts | 328° |
| 2026-04-11 10:09 | 19.70235 | 6.79106 | 37060 ft | 450 kts | 329° |
| 2026-04-11 10:09 | 19.75949 | 6.76479 | 37055 ft | 448 kts | 328° |
| 2026-04-11 10:10 | 19.81702 | 6.73829 | 37050 ft | 449 kts | 328° |
| 2026-04-11 10:10 | 19.87417 | 6.71197 | 37052 ft | 447 kts | 328° |
| 2026-04-11 10:11 | 19.93126 | 6.68565 | 37061 ft | 446 kts | 328° |
| 2026-04-11 10:11 | 19.98814 | 6.65939 | 37064 ft | 447 kts | 328° |
| 2026-04-11 10:12 | 20.04520 | 6.63303 | 37068 ft | 448 kts | 328° |
| 2026-04-11 10:12 | 20.10261 | 6.60650 | 37068 ft | 448 kts | 328° |
| 2026-04-11 10:13 | 20.16064 | 6.58105 | 37067 ft | 451 kts | 330° |
| 2026-04-11 10:13 | 20.21906 | 6.55668 | 37066 ft | 451 kts | 330° |
| 2026-04-11 10:14 | 20.27755 | 6.53217 | 37069 ft | 451 kts | 329° |
| 2026-04-11 10:14 | 20.33585 | 6.50766 | 37073 ft | 451 kts | 329° |
| 2026-04-11 10:15 | 20.39446 | 6.48297 | 37077 ft | 451 kts | 329° |
| 2026-04-11 10:15 | 20.45263 | 6.45842 | 37075 ft | 452 kts | 329° |
| 2026-04-11 10:16 | 20.51119 | 6.43370 | 37082 ft | 450 kts | 329° |
| 2026-04-11 10:16 | 20.56947 | 6.40906 | 37083 ft | 451 kts | 329° |
| 2026-04-11 10:17 | 20.62808 | 6.38425 | 37085 ft | 452 kts | 329° |
| 2026-04-11 10:17 | 20.68628 | 6.35961 | 37086 ft | 451 kts | 329° |
| 2026-04-11 10:18 | 20.74445 | 6.33495 | 37111 ft | 450 kts | 329° |
| 2026-04-11 10:18 | 20.80309 | 6.31008 | 37117 ft | 450 kts | 328° |
| 2026-04-11 10:19 | 20.86121 | 6.28539 | 37120 ft | 451 kts | 329° |
| 2026-04-11 10:19 | 20.91972 | 6.26052 | 37120 ft | 452 kts | 328° |
| 2026-04-11 10:20 | 20.97784 | 6.23581 | 37117 ft | 451 kts | 328° |
| 2026-04-11 10:20 | 21.03646 | 6.21085 | 37122 ft | 453 kts | 328° |
| 2026-04-11 10:21 | 21.09488 | 6.18598 | 37118 ft | 449 kts | 328° |
| 2026-04-11 10:21 | 21.15313 | 6.16113 | 37111 ft | 450 kts | 328° |
| 2026-04-11 10:22 | 21.21159 | 6.13617 | 37099 ft | 453 kts | 328° |
| 2026-04-11 10:22 | 21.27002 | 6.11122 | 37100 ft | 453 kts | 328° |
| 2026-04-11 10:23 | 21.32858 | 6.08619 | 37105 ft | 451 kts | 328° |
| 2026-04-11 10:23 | 21.38722 | 6.06110 | 37113 ft | 452 kts | 328° |
| 2026-04-11 10:24 | 21.44591 | 6.03596 | 37115 ft | 453 kts | 328° |
| 2026-04-11 10:24 | 21.50427 | 6.01095 | 37114 ft | 453 kts | 327° |
| 2026-04-11 10:25 | 21.56305 | 5.98573 | 37120 ft | 455 kts | 328° |
| 2026-04-11 10:25 | 21.62222 | 5.96033 | 37127 ft | 454 kts | 327° |
| 2026-04-11 10:26 | 21.68098 | 5.93508 | 37127 ft | 455 kts | 328° |
| 2026-04-11 10:26 | 21.73972 | 5.90981 | 37131 ft | 457 kts | 327° |
| 2026-04-11 10:27 | 21.79896 | 5.88430 | 37140 ft | 457 kts | 327° |
| 2026-04-11 10:27 | 21.85806 | 5.85885 | 37149 ft | 457 kts | 327° |
| 2026-04-11 10:28 | 21.91717 | 5.83335 | 37148 ft | 456 kts | 327° |
| 2026-04-11 10:28 | 21.97595 | 5.80800 | 37166 ft | 454 kts | 327° |
| 2026-04-11 10:29 | 22.03445 | 5.78272 | 37163 ft | 453 kts | 327° |
| 2026-04-11 10:29 | 22.09334 | 5.75725 | 37171 ft | 454 kts | 327° |
| 2026-04-11 10:30 | 22.15199 | 5.73187 | 37169 ft | 453 kts | 327° |
| 2026-04-11 10:30 | 22.21063 | 5.70646 | 37184 ft | 454 kts | 327° |
| 2026-04-11 10:31 | 22.26940 | 5.68097 | 37187 ft | 455 kts | 327° |
| 2026-04-11 10:31 | 22.32822 | 5.65547 | 37193 ft | 452 kts | 327° |
| 2026-04-11 10:32 | 22.38656 | 5.63012 | 37214 ft | 453 kts | 327° |
| 2026-04-11 10:32 | 22.44486 | 5.60476 | 37226 ft | 454 kts | 326° |
| 2026-04-11 10:33 | 22.50362 | 5.57918 | 37238 ft | 454 kts | 326° |
| 2026-04-11 10:33 | 22.56250 | 5.55355 | 37247 ft | 453 kts | 327° |
| 2026-04-11 10:34 | 22.62089 | 5.52810 | 37253 ft | 452 kts | 326° |
| 2026-04-11 10:34 | 22.67919 | 5.50265 | 37253 ft | 452 kts | 326° |
| 2026-04-11 10:35 | 22.73730 | 5.47727 | 37269 ft | 451 kts | 327° |
| 2026-04-11 10:35 | 22.79590 | 5.45207 | 37260 ft | 456 kts | 330° |
| 2026-04-11 10:35 | 22.82682 | 5.44332 | 37268 ft | 467 kts | 338° |
| 2026-04-11 10:36 | 22.85937 | 5.43766 | 37275 ft | 471 kts | 340° |
| 2026-04-11 10:36 | 22.92430 | 5.42723 | 37271 ft | 473 kts | 340° |
| 2026-04-11 10:37 | 22.98916 | 5.41676 | 37286 ft | 472 kts | 339° |
| 2026-04-11 10:37 | 23.05458 | 5.40611 | 37290 ft | 473 kts | 340° |
| 2026-04-11 10:38 | 23.11977 | 5.39547 | 37300 ft | 474 kts | 340° |
| 2026-04-11 10:38 | 23.21810 | 5.37938 | 37303 ft | 474 kts | 340° |
| 2026-04-11 10:39 | 23.28320 | 5.36871 | 37302 ft | 473 kts | 340° |
| 2026-04-11 10:39 | 23.34843 | 5.35799 | 37271 ft | 474 kts | 340° |
| 2026-04-11 10:40 | 23.41382 | 5.34724 | 37275 ft | 474 kts | 339° |
| 2026-04-11 10:40 | 23.47936 | 5.33643 | 37248 ft | 478 kts | 340° |
| 2026-04-11 10:41 | 23.54519 | 5.32560 | 37230 ft | 477 kts | 340° |
| 2026-04-11 10:41 | 23.61053 | 5.31485 | 37212 ft | 473 kts | 339° |
| 2026-04-11 10:42 | 23.67570 | 5.30407 | 37209 ft | 475 kts | 340° |
| 2026-04-11 10:42 | 23.74142 | 5.29322 | 37203 ft | 474 kts | 340° |
| 2026-04-11 10:43 | 23.83929 | 5.27701 | 37210 ft | 475 kts | 340° |
| 2026-04-11 10:44 | 23.90479 | 5.26617 | 37211 ft | 474 kts | 340° |
| 2026-04-11 10:44 | 23.96992 | 5.25535 | 37217 ft | 475 kts | 340° |
| 2026-04-11 10:45 | 24.03585 | 5.24439 | 37210 ft | 478 kts | 340° |
| 2026-04-11 10:45 | 24.10158 | 5.23349 | 37207 ft | 477 kts | 340° |
| 2026-04-11 10:46 | 24.16716 | 5.22258 | 37199 ft | 476 kts | 340° |
| 2026-04-11 10:46 | 24.23271 | 5.21166 | 37187 ft | 476 kts | 340° |
| 2026-04-11 10:47 | 24.29828 | 5.20071 | 37182 ft | 478 kts | 340° |
| 2026-04-11 10:47 | 24.36424 | 5.18971 | 37189 ft | 477 kts | 340° |
| 2026-04-11 10:48 | 24.42957 | 5.17881 | 37187 ft | 476 kts | 340° |
| 2026-04-11 10:48 | 24.49523 | 5.16782 | 37195 ft | 476 kts | 340° |
| 2026-04-11 10:49 | 24.56076 | 5.15686 | 37190 ft | 474 kts | 340° |
| 2026-04-11 10:49 | 24.62641 | 5.14584 | 37168 ft | 476 kts | 340° |
| 2026-04-11 10:50 | 24.69180 | 5.13487 | 37159 ft | 477 kts | 340° |
| 2026-04-11 10:50 | 24.75718 | 5.12390 | 37146 ft | 474 kts | 340° |
| 2026-04-11 10:51 | 24.82236 | 5.11292 | 37143 ft | 477 kts | 340° |
| 2026-04-11 10:51 | 24.88809 | 5.10186 | 37131 ft | 477 kts | 340° |
| 2026-04-11 10:52 | 24.95385 | 5.09078 | 37131 ft | 478 kts | 340° |
| 2026-04-11 10:52 | 25.01968 | 5.07967 | 37127 ft | 479 kts | 341° |
| 2026-04-11 10:53 | 25.08541 | 5.06860 | 37130 ft | 473 kts | 341° |
| 2026-04-11 10:53 | 25.15043 | 5.05760 | 37112 ft | 475 kts | 341° |
| 2026-04-11 10:54 | 25.21606 | 5.04648 | 37094 ft | 478 kts | 341° |
| 2026-04-11 10:54 | 25.28214 | 5.03529 | 37093 ft | 476 kts | 341° |
| 2026-04-11 10:55 | 25.34787 | 5.02414 | 37076 ft | 475 kts | 341° |
| 2026-04-11 10:55 | 25.41306 | 5.01307 | 37083 ft | 477 kts | 341° |
| 2026-04-11 10:56 | 25.47874 | 5.00190 | 37081 ft | 477 kts | 341° |
| 2026-04-11 10:56 | 25.54442 | 4.99075 | 37069 ft | 473 kts | 341° |
| 2026-04-11 10:57 | 25.60938 | 4.97967 | 37066 ft | 475 kts | 341° |
| 2026-04-11 10:57 | 25.67477 | 4.96851 | 37070 ft | 475 kts | 341° |
| 2026-04-11 10:58 | 25.74027 | 4.95733 | 37070 ft | 474 kts | 341° |
| 2026-04-11 10:58 | 25.80568 | 4.94615 | 37082 ft | 476 kts | 341° |
| 2026-04-11 10:59 | 25.87085 | 4.93501 | 37073 ft | 473 kts | 341° |
| 2026-04-11 10:59 | 25.93630 | 4.92379 | 37060 ft | 475 kts | 342° |
| 2026-04-11 11:00 | 26.00127 | 4.91265 | 37045 ft | 473 kts | 341° |
| 2026-04-11 11:00 | 26.06671 | 4.90141 | 37046 ft | 473 kts | 342° |
| 2026-04-11 11:01 | 26.13180 | 4.89022 | 37036 ft | 475 kts | 342° |
| 2026-04-11 11:01 | 26.19699 | 4.87902 | 37027 ft | 470 kts | 341° |
| 2026-04-11 11:02 | 26.26197 | 4.86781 | 37023 ft | 474 kts | 342° |
| 2026-04-11 11:02 | 26.32702 | 4.85660 | 37023 ft | 472 kts | 342° |
| 2026-04-11 11:03 | 26.39191 | 4.84540 | 36996 ft | 470 kts | 342° |
| 2026-04-11 11:03 | 26.45660 | 4.83421 | 36970 ft | 471 kts | 342° |
| 2026-04-11 11:04 | 26.52134 | 4.82300 | 36980 ft | 471 kts | 341° |
| 2026-04-11 11:04 | 26.58612 | 4.81180 | 36978 ft | 468 kts | 341° |
| 2026-04-11 11:05 | 26.65081 | 4.80056 | 36971 ft | 469 kts | 342° |
| 2026-04-11 11:05 | 26.71499 | 4.78942 | 36976 ft | 469 kts | 341° |
| 2026-04-11 11:06 | 26.77973 | 4.77817 | 36957 ft | 467 kts | 342° |
| 2026-04-11 11:06 | 26.84409 | 4.76697 | 36964 ft | 467 kts | 341° |
| 2026-04-11 11:07 | 26.90834 | 4.75577 | 36952 ft | 466 kts | 341° |
| 2026-04-11 11:07 | 26.97246 | 4.74459 | 36944 ft | 465 kts | 341° |
| 2026-04-11 11:08 | 27.03660 | 4.73337 | 36938 ft | 468 kts | 341° |
| 2026-04-11 11:08 | 27.10102 | 4.72212 | 36934 ft | 466 kts | 341° |
| 2026-04-11 11:09 | 27.16513 | 4.71090 | 36920 ft | 465 kts | 341° |
| 2026-04-11 11:09 | 27.22935 | 4.69963 | 36917 ft | 467 kts | 341° |
| 2026-04-11 11:10 | 27.29334 | 4.68841 | 36913 ft | 465 kts | 341° |
| 2026-04-11 11:10 | 27.35748 | 4.67714 | 36914 ft | 466 kts | 341° |
| 2026-04-11 11:11 | 27.42175 | 4.66582 | 36910 ft | 467 kts | 341° |
| 2026-04-11 11:11 | 27.48585 | 4.65455 | 36911 ft | 466 kts | 341° |
| 2026-04-11 11:12 | 27.55020 | 4.64320 | 36905 ft | 467 kts | 341° |
| 2026-04-11 11:12 | 27.61444 | 4.63186 | 36905 ft | 467 kts | 341° |
| 2026-04-11 11:13 | 27.67879 | 4.62049 | 36904 ft | 468 kts | 341° |
| 2026-04-11 11:13 | 27.74325 | 4.60909 | 36901 ft | 467 kts | 341° |
| 2026-04-11 11:14 | 27.80745 | 4.59772 | 36908 ft | 466 kts | 341° |
| 2026-04-11 11:14 | 27.87196 | 4.58627 | 36904 ft | 468 kts | 341° |
| 2026-04-11 11:15 | 27.93614 | 4.57487 | 36906 ft | 469 kts | 341° |
| 2026-04-11 11:15 | 28.00054 | 4.56342 | 36908 ft | 470 kts | 341° |
| 2026-04-11 11:16 | 28.06508 | 4.55196 | 36905 ft | 464 kts | 341° |
| 2026-04-11 11:16 | 28.12890 | 4.54057 | 36899 ft | 467 kts | 341° |
| 2026-04-11 11:17 | 28.19360 | 4.52902 | 36893 ft | 468 kts | 341° |
| 2026-04-11 11:17 | 28.25766 | 4.51759 | 36883 ft | 467 kts | 340° |
| 2026-04-11 11:18 | 28.32208 | 4.50605 | 36880 ft | 469 kts | 340° |
| 2026-04-11 11:18 | 28.38636 | 4.49455 | 36877 ft | 468 kts | 340° |
| 2026-04-11 11:19 | 28.45072 | 4.48302 | 36875 ft | 467 kts | 340° |
| 2026-04-11 11:19 | 28.51527 | 4.47144 | 36874 ft | 469 kts | 341° |
| 2026-04-11 11:20 | 28.57968 | 4.46022 | 36877 ft | 468 kts | 340° |
| 2026-04-11 11:20 | 28.64414 | 4.44898 | 36872 ft | 468 kts | 340° |
| 2026-04-11 11:21 | 28.70838 | 4.43775 | 36872 ft | 468 kts | 340° |
| 2026-04-11 11:21 | 28.77277 | 4.42646 | 36866 ft | 470 kts | 340° |
| 2026-04-11 11:22 | 28.83754 | 4.41512 | 36859 ft | 468 kts | 340° |
| 2026-04-11 11:22 | 28.90170 | 4.40386 | 36854 ft | 467 kts | 340° |
| 2026-04-11 11:23 | 28.96607 | 4.39253 | 36848 ft | 468 kts | 340° |
| 2026-04-11 11:23 | 29.03079 | 4.38113 | 36848 ft | 469 kts | 340° |
| 2026-04-11 11:24 | 29.09489 | 4.36984 | 36852 ft | 468 kts | 340° |
| 2026-04-11 11:24 | 29.15935 | 4.35846 | 36848 ft | 468 kts | 340° |
| 2026-04-11 11:25 | 29.22380 | 4.34707 | 36873 ft | 469 kts | 339° |
| 2026-04-11 11:25 | 29.28838 | 4.33563 | 36879 ft | 472 kts | 339° |
| 2026-04-11 11:26 | 29.35321 | 4.32417 | 36876 ft | 469 kts | 339° |
| 2026-04-11 11:26 | 29.41751 | 4.31276 | 36863 ft | 469 kts | 339° |
| 2026-04-11 11:27 | 29.48256 | 4.30117 | 36859 ft | 474 kts | 339° |
| 2026-04-11 11:27 | 29.54785 | 4.28957 | 36852 ft | 473 kts | 339° |
| 2026-04-11 11:28 | 29.61288 | 4.27800 | 36833 ft | 473 kts | 339° |
| 2026-04-11 11:28 | 29.67797 | 4.26638 | 36838 ft | 474 kts | 339° |
| 2026-04-11 11:29 | 29.77538 | 4.24919 | 36832 ft | 473 kts | 339° |
| 2026-04-11 11:29 | 29.84100 | 4.23768 | 36830 ft | 477 kts | 339° |
| 2026-04-11 11:30 | 29.90684 | 4.22613 | 36829 ft | 479 kts | 339° |
| 2026-04-11 11:30 | 29.97290 | 4.21452 | 36824 ft | 481 kts | 339° |
| 2026-04-11 11:31 | 30.03894 | 4.20291 | 36836 ft | 481 kts | 339° |
| 2026-04-11 11:31 | 30.10541 | 4.19121 | 36832 ft | 481 kts | 339° |
| 2026-04-11 11:32 | 30.17147 | 4.17956 | 36830 ft | 481 kts | 339° |
| 2026-04-11 11:32 | 30.23770 | 4.16784 | 36831 ft | 483 kts | 339° |
| 2026-04-11 11:33 | 30.30455 | 4.15602 | 36825 ft | 484 kts | 339° |
| 2026-04-11 11:33 | 30.37130 | 4.14417 | 36821 ft | 489 kts | 339° |
| 2026-04-11 11:34 | 30.43866 | 4.13220 | 36822 ft | 493 kts | 340° |
| 2026-04-11 11:34 | 30.50699 | 4.12007 | 36824 ft | 495 kts | 340° |
| 2026-04-11 11:35 | 30.57460 | 4.10808 | 36820 ft | 493 kts | 340° |
| 2026-04-11 11:35 | 30.64293 | 4.09589 | 36821 ft | 496 kts | 340° |
| 2026-04-11 11:36 | 30.71151 | 4.08364 | 36811 ft | 499 kts | 340° |
| 2026-04-11 11:36 | 30.78006 | 4.07141 | 36816 ft | 497 kts | 340° |
| 2026-04-11 11:37 | 30.84833 | 4.05920 | 36823 ft | 499 kts | 340° |
| 2026-04-11 11:37 | 30.91726 | 4.04681 | 36817 ft | 504 kts | 341° |
| 2026-04-11 11:38 | 30.98687 | 4.03433 | 36817 ft | 503 kts | 340° |
| 2026-04-11 11:38 | 31.05570 | 4.02197 | 36830 ft | 505 kts | 341° |
| 2026-04-11 11:39 | 31.12568 | 4.00936 | 36811 ft | 509 kts | 341° |
| 2026-04-11 11:39 | 31.19606 | 3.99667 | 36802 ft | 512 kts | 341° |
| 2026-04-11 11:40 | 31.26616 | 3.98405 | 36817 ft | 506 kts | 340° |
| 2026-04-11 11:40 | 31.33576 | 3.97146 | 36810 ft | 509 kts | 341° |
| 2026-04-11 11:41 | 31.40623 | 3.95870 | 36821 ft | 508 kts | 341° |
| 2026-04-11 11:41 | 31.47577 | 3.94609 | 36828 ft | 508 kts | 341° |
| 2026-04-11 11:42 | 31.54586 | 3.93334 | 36838 ft | 512 kts | 341° |
| 2026-04-11 11:42 | 31.61671 | 3.92046 | 36832 ft | 511 kts | 341° |
| 2026-04-11 11:43 | 31.68665 | 3.90773 | 36841 ft | 512 kts | 341° |
| 2026-04-11 11:43 | 31.72187 | 3.90129 | 36514 ft | 513 kts | 341° |
| 2026-04-11 11:43 | 31.75739 | 3.89482 | 36811 ft | 510 kts | 341° |
| 2026-04-11 11:44 | 31.82741 | 3.88200 | 36853 ft | 515 kts | 341° |
| 2026-04-11 11:44 | 31.89854 | 3.86901 | 36838 ft | 511 kts | 341° |
| 2026-04-11 11:45 | 31.96916 | 3.85605 | 36859 ft | 516 kts | 342° |
| 2026-04-11 11:45 | 32.03999 | 3.84302 | 36847 ft | 520 kts | 342° |
| 2026-04-11 11:46 | 32.11124 | 3.82996 | 36852 ft | 514 kts | 342° |
| 2026-04-11 11:46 | 32.18234 | 3.81685 | 36856 ft | 517 kts | 342° |
| 2026-04-11 11:47 | 32.25345 | 3.80372 | 36864 ft | 519 kts | 342° |
| 2026-04-11 11:47 | 32.32487 | 3.79053 | 36855 ft | 520 kts | 342° |
| 2026-04-11 11:48 | 32.39729 | 3.78062 | 36845 ft | 530 kts | 353° |
| 2026-04-11 11:48 | 32.47135 | 3.78849 | 36872 ft | 540 kts | 1° |
| 2026-04-11 11:49 | 32.54594 | 3.79943 | 36893 ft | 542 kts | 2° |
| 2026-04-11 11:49 | 32.62142 | 3.81044 | 36892 ft | 545 kts | 2° |
| 2026-04-11 11:50 | 32.69672 | 3.82138 | 36908 ft | 545 kts | 2° |
| 2026-04-11 11:50 | 32.77209 | 3.83231 | 36922 ft | 546 kts | 2° |
| 2026-04-11 11:51 | 32.84724 | 3.84322 | 36918 ft | 542 kts | 2° |
| 2026-04-11 11:51 | 32.92210 | 3.85407 | 36925 ft | 544 kts | 3° |
| 2026-04-11 11:52 | 32.99741 | 3.86501 | 36943 ft | 545 kts | 2° |
| 2026-04-11 11:52 | 33.07272 | 3.87594 | 36943 ft | 544 kts | 3° |
| 2026-04-11 11:53 | 33.14787 | 3.88680 | 36933 ft | 541 kts | 3° |
| 2026-04-11 11:53 | 33.22226 | 3.89758 | 36927 ft | 540 kts | 3° |
| 2026-04-11 11:54 | 33.29709 | 3.90843 | 36933 ft | 540 kts | 2° |
| 2026-04-11 11:54 | 33.37132 | 3.91923 | 36940 ft | 536 kts | 2° |
| 2026-04-11 11:55 | 33.44565 | 3.93004 | 36941 ft | 538 kts | 3° |
| 2026-04-11 11:55 | 33.51981 | 3.94086 | 36948 ft | 536 kts | 2° |
| 2026-04-11 11:56 | 33.59322 | 3.95159 | 36950 ft | 532 kts | 3° |
| 2026-04-11 11:56 | 33.66697 | 3.96237 | 36953 ft | 535 kts | 3° |
| 2026-04-11 11:57 | 33.74089 | 3.97321 | 36951 ft | 535 kts | 3° |
| 2026-04-11 11:57 | 33.81449 | 3.98401 | 36962 ft | 534 kts | 3° |
| 2026-04-11 11:58 | 33.88776 | 3.99481 | 36961 ft | 528 kts | 2° |
| 2026-04-11 11:58 | 33.96110 | 4.00560 | 36939 ft | 530 kts | 3° |
| 2026-04-11 11:59 | 34.03376 | 4.01634 | 36955 ft | 527 kts | 2° |
| 2026-04-11 11:59 | 34.10695 | 4.02714 | 36949 ft | 530 kts | 4° |
| 2026-04-11 12:00 | 34.17944 | 4.03775 | 36938 ft | 523 kts | 3° |
| 2026-04-11 12:00 | 34.25217 | 4.04835 | 36930 ft | 526 kts | 3° |
| 2026-04-11 12:01 | 34.32446 | 4.05893 | 36946 ft | 523 kts | 4° |
| 2026-04-11 12:01 | 34.39645 | 4.06948 | 36959 ft | 522 kts | 4° |
| 2026-04-11 12:02 | 34.46854 | 4.08007 | 36983 ft | 521 kts | 4° |
| 2026-04-11 12:02 | 34.54080 | 4.09070 | 36996 ft | 523 kts | 4° |
| 2026-04-11 12:03 | 34.61307 | 4.10135 | 37013 ft | 525 kts | 4° |
| 2026-04-11 12:03 | 34.68554 | 4.11206 | 37020 ft | 520 kts | 4° |
| 2026-04-11 12:04 | 34.75735 | 4.12268 | 37025 ft | 524 kts | 4° |
| 2026-04-11 12:04 | 34.82985 | 4.13342 | 37044 ft | 523 kts | 4° |
| 2026-04-11 12:05 | 34.90125 | 4.14403 | 37051 ft | 520 kts | 3° |
| 2026-04-11 12:05 | 34.97335 | 4.15475 | 37069 ft | 521 kts | 4° |
| 2026-04-11 12:06 | 35.04512 | 4.16544 | 37059 ft | 519 kts | 4° |
| 2026-04-11 12:06 | 35.11686 | 4.17614 | 37029 ft | 520 kts | 4° |
| 2026-04-11 12:07 | 35.18820 | 4.18682 | 36986 ft | 517 kts | 4° |
| 2026-04-11 12:07 | 35.25964 | 4.19716 | 36963 ft | 517 kts | 0° |
| 2026-04-11 12:08 | 35.33038 | 4.19107 | 36943 ft | 505 kts | 341° |
| 2026-04-11 12:08 | 35.39524 | 4.16076 | 36959 ft | 493 kts | 324° |
| 2026-04-11 12:09 | 35.45411 | 4.11929 | 36987 ft | 490 kts | 323° |
| 2026-04-11 12:09 | 35.51304 | 4.07692 | 36981 ft | 489 kts | 323° |
| 2026-04-11 12:10 | 35.57184 | 4.03438 | 36976 ft | 492 kts | 323° |
| 2026-04-11 12:10 | 35.63079 | 3.99157 | 36989 ft | 494 kts | 323° |
| 2026-04-11 12:11 | 35.68966 | 3.94880 | 36979 ft | 493 kts | 323° |
| 2026-04-11 12:11 | 35.74884 | 3.90613 | 37000 ft | 492 kts | 323° |
| 2026-04-11 12:12 | 35.80753 | 3.86370 | 37015 ft | 494 kts | 323° |
| 2026-04-11 12:12 | 35.86684 | 3.82075 | 37018 ft | 493 kts | 323° |
| 2026-04-11 12:13 | 35.92585 | 3.77792 | 37019 ft | 492 kts | 323° |
| 2026-04-11 12:13 | 35.98459 | 3.73519 | 37038 ft | 494 kts | 323° |
| 2026-04-11 12:14 | 36.04416 | 3.69179 | 37038 ft | 496 kts | 323° |
| 2026-04-11 12:14 | 36.10307 | 3.64881 | 37033 ft | 492 kts | 323° |
| 2026-04-11 12:15 | 36.16198 | 3.60573 | 36999 ft | 492 kts | 323° |
| 2026-04-11 12:15 | 36.22069 | 3.56272 | 36993 ft | 492 kts | 324° |
| 2026-04-11 12:16 | 36.27957 | 3.51952 | 36975 ft | 492 kts | 324° |
| 2026-04-11 12:16 | 36.33852 | 3.47619 | 36961 ft | 494 kts | 324° |
| 2026-04-11 12:17 | 36.39759 | 3.43269 | 36953 ft | 493 kts | 324° |
| 2026-04-11 12:17 | 36.45625 | 3.38942 | 36938 ft | 494 kts | 324° |
| 2026-04-11 12:18 | 36.51550 | 3.34563 | 36934 ft | 493 kts | 324° |
| 2026-04-11 12:19 | 36.60324 | 3.28065 | 36914 ft | 492 kts | 324° |
| 2026-04-11 12:19 | 36.66227 | 3.23683 | 36895 ft | 491 kts | 324° |
| 2026-04-11 12:20 | 36.72055 | 3.19281 | 36889 ft | 492 kts | 323° |
| 2026-04-11 12:20 | 36.77822 | 3.14738 | 36873 ft | 493 kts | 323° |
| 2026-04-11 12:21 | 36.83620 | 3.10169 | 36870 ft | 492 kts | 323° |
| 2026-04-11 12:21 | 36.89403 | 3.05610 | 36875 ft | 492 kts | 323° |
| 2026-04-11 12:22 | 36.95190 | 3.01042 | 36861 ft | 493 kts | 323° |
| 2026-04-11 12:22 | 37.00936 | 2.96501 | 36854 ft | 490 kts | 324° |
| 2026-04-11 12:23 | 37.06706 | 2.91932 | 36858 ft | 493 kts | 323° |
| 2026-04-11 12:23 | 37.12503 | 2.87335 | 36842 ft | 493 kts | 323° |
| 2026-04-11 12:24 | 37.18282 | 2.82745 | 36834 ft | 490 kts | 323° |
| 2026-04-11 12:24 | 37.24005 | 2.78190 | 36846 ft | 490 kts | 323° |
| 2026-04-11 12:25 | 37.29767 | 2.73596 | 36849 ft | 490 kts | 324° |
| 2026-04-11 12:25 | 37.35517 | 2.69002 | 36845 ft | 491 kts | 323° |
| 2026-04-11 12:26 | 37.41258 | 2.64409 | 36842 ft | 489 kts | 323° |
| 2026-04-11 12:26 | 37.47020 | 2.59788 | 36837 ft | 491 kts | 323° |
| 2026-04-11 12:27 | 37.52776 | 2.55165 | 36838 ft | 490 kts | 323° |
| 2026-04-11 12:27 | 37.58495 | 2.50563 | 36838 ft | 492 kts | 323° |
| 2026-04-11 12:28 | 37.64243 | 2.45929 | 36837 ft | 491 kts | 323° |
| 2026-04-11 12:28 | 37.70026 | 2.41258 | 36839 ft | 493 kts | 323° |
| 2026-04-11 12:29 | 37.75780 | 2.36602 | 36841 ft | 493 kts | 323° |
| 2026-04-11 12:29 | 37.81515 | 2.31964 | 36842 ft | 491 kts | 324° |
| 2026-04-11 12:30 | 37.87373 | 2.27519 | 36842 ft | 491 kts | 325° |
| 2026-04-11 12:30 | 37.93228 | 2.23087 | 36838 ft | 491 kts | 325° |
| 2026-04-11 12:31 | 37.99070 | 2.18648 | 36843 ft | 490 kts | 325° |
| 2026-04-11 12:31 | 38.04896 | 2.14205 | 36849 ft | 491 kts | 324° |
| 2026-04-11 12:32 | 38.10738 | 2.09741 | 36841 ft | 489 kts | 324° |
| 2026-04-11 12:32 | 38.16578 | 2.05266 | 36837 ft | 492 kts | 324° |
| 2026-04-11 12:33 | 38.22422 | 2.00780 | 36832 ft | 490 kts | 324° |
| 2026-04-11 12:33 | 38.28247 | 1.96299 | 36836 ft | 490 kts | 325° |
| 2026-04-11 12:34 | 38.34061 | 1.91819 | 36836 ft | 490 kts | 324° |
| 2026-04-11 12:34 | 38.39875 | 1.87328 | 36838 ft | 490 kts | 325° |
| 2026-04-11 12:35 | 38.45697 | 1.82823 | 36844 ft | 489 kts | 325° |
| 2026-04-11 12:35 | 38.51498 | 1.78325 | 36846 ft | 491 kts | 325° |
| 2026-04-11 12:36 | 38.57299 | 1.73820 | 36853 ft | 491 kts | 324° |
| 2026-04-11 12:36 | 38.63144 | 1.69271 | 36855 ft | 489 kts | 325° |
| 2026-04-11 12:37 | 38.68933 | 1.64759 | 36864 ft | 488 kts | 325° |
| 2026-04-11 12:37 | 38.74703 | 1.60252 | 36865 ft | 488 kts | 325° |
| 2026-04-11 12:38 | 38.80495 | 1.55718 | 36872 ft | 487 kts | 325° |
| 2026-04-11 12:38 | 38.86292 | 1.51171 | 36873 ft | 489 kts | 325° |
| 2026-04-11 12:39 | 38.92424 | 1.47473 | 36874 ft | 493 kts | 341° |
| 2026-04-11 12:39 | 38.99272 | 1.46029 | 36879 ft | 498 kts | 352° |
| 2026-04-11 12:40 | 39.06107 | 1.45135 | 36878 ft | 497 kts | 352° |
| 2026-04-11 12:40 | 39.13014 | 1.44234 | 36863 ft | 498 kts | 353° |
| 2026-04-11 12:41 | 39.19890 | 1.43341 | 36868 ft | 495 kts | 353° |
| 2026-04-11 12:41 | 39.26627 | 1.42463 | 36872 ft | 496 kts | 353° |
| 2026-04-11 12:42 | 39.33504 | 1.41566 | 36873 ft | 494 kts | 353° |
| 2026-04-11 12:42 | 39.40335 | 1.40671 | 36876 ft | 494 kts | 353° |
| 2026-04-11 12:43 | 39.50596 | 1.39321 | 36876 ft | 493 kts | 353° |
| 2026-04-11 12:43 | 39.57444 | 1.38417 | 37003 ft | 499 kts | 353° |
| 2026-04-11 12:44 | 39.60916 | 1.37958 | 37276 ft | 498 kts | 353° |
| 2026-04-11 12:44 | 39.64329 | 1.37507 | 37649 ft | 495 kts | 353° |
| 2026-04-11 12:44 | 39.67789 | 1.37049 | 37881 ft | 494 kts | 353° |
| 2026-04-11 12:44 | 39.71215 | 1.36594 | 37877 ft | 495 kts | 353° |
| 2026-04-11 12:45 | 39.78020 | 1.35691 | 37878 ft | 493 kts | 353° |
| 2026-04-11 12:45 | 39.84858 | 1.34781 | 37879 ft | 495 kts | 352° |
| 2026-04-11 12:46 | 39.91711 | 1.33868 | 37884 ft | 494 kts | 352° |
| 2026-04-11 12:46 | 39.98514 | 1.32959 | 37891 ft | 491 kts | 352° |
| 2026-04-11 12:47 | 40.05312 | 1.32049 | 37882 ft | 492 kts | 352° |
| 2026-04-11 12:47 | 40.12088 | 1.31140 | 37867 ft | 490 kts | 352° |
| 2026-04-11 12:48 | 40.18894 | 1.30226 | 37872 ft | 491 kts | 352° |
| 2026-04-11 12:48 | 40.25712 | 1.29307 | 37865 ft | 490 kts | 352° |
| 2026-04-11 12:49 | 40.32480 | 1.28394 | 37872 ft | 490 kts | 352° |
| 2026-04-11 12:49 | 40.39226 | 1.27482 | 37869 ft | 489 kts | 352° |
| 2026-04-11 12:50 | 40.46003 | 1.26564 | 37880 ft | 489 kts | 352° |
| 2026-04-11 12:50 | 40.52786 | 1.25643 | 37886 ft | 490 kts | 352° |
| 2026-04-11 12:51 | 40.59552 | 1.24722 | 37885 ft | 488 kts | 352° |
| 2026-04-11 12:51 | 40.66303 | 1.23802 | 37891 ft | 488 kts | 352° |
| 2026-04-11 12:52 | 40.73049 | 1.22880 | 37882 ft | 489 kts | 352° |
| 2026-04-11 12:52 | 40.79813 | 1.21954 | 37881 ft | 489 kts | 352° |
| 2026-04-11 12:53 | 40.86512 | 1.21036 | 37893 ft | 487 kts | 352° |
| 2026-04-11 12:53 | 40.93257 | 1.20109 | 37903 ft | 487 kts | 352° |
| 2026-04-11 12:54 | 40.99986 | 1.19182 | 37902 ft | 487 kts | 352° |
| 2026-04-11 12:54 | 41.06762 | 1.18247 | 37914 ft | 486 kts | 352° |
| 2026-04-11 12:55 | 41.13477 | 1.17318 | 37913 ft | 485 kts | 352° |
| 2026-04-11 12:55 | 41.20182 | 1.16533 | 37927 ft | 485 kts | 353° |
| 2026-04-11 12:56 | 41.26891 | 1.15849 | 37936 ft | 485 kts | 353° |
| 2026-04-11 12:56 | 41.33598 | 1.15152 | 37941 ft | 485 kts | 353° |
| 2026-04-11 12:57 | 41.40306 | 1.14453 | 37946 ft | 483 kts | 353° |
| 2026-04-11 12:57 | 41.47018 | 1.13750 | 37959 ft | 484 kts | 353° |
| 2026-04-11 12:58 | 41.53684 | 1.13050 | 37964 ft | 482 kts | 353° |
| 2026-04-11 12:58 | 41.60416 | 1.12339 | 37957 ft | 483 kts | 353° |
| 2026-04-11 12:59 | 41.67091 | 1.11633 | 37953 ft | 480 kts | 353° |
| 2026-04-11 12:59 | 41.73710 | 1.10931 | 37941 ft | 480 kts | 353° |
| 2026-04-11 13:00 | 41.80343 | 1.10226 | 37939 ft | 478 kts | 353° |
| 2026-04-11 13:00 | 41.86987 | 1.09517 | 37946 ft | 479 kts | 353° |
| 2026-04-11 13:01 | 41.96968 | 1.08451 | 37971 ft | 477 kts | 353° |
| 2026-04-11 13:02 | 42.03558 | 1.07744 | 37995 ft | 478 kts | 353° |
| 2026-04-11 13:02 | 42.10210 | 1.07030 | 37999 ft | 478 kts | 353° |
| 2026-04-11 13:03 | 42.16842 | 1.06317 | 37995 ft | 478 kts | 353° |
| 2026-04-11 13:03 | 42.23463 | 1.05604 | 38009 ft | 479 kts | 353° |
| 2026-04-11 13:04 | 42.30149 | 1.04883 | 38017 ft | 480 kts | 353° |
| 2026-04-11 13:04 | 42.36800 | 1.04165 | 38045 ft | 480 kts | 353° |
| 2026-04-11 13:05 | 42.43446 | 1.03446 | 38055 ft | 479 kts | 353° |
| 2026-04-11 13:05 | 42.50059 | 1.02726 | 38076 ft | 479 kts | 353° |
| 2026-04-11 13:06 | 42.56737 | 1.01997 | 38097 ft | 480 kts | 353° |
| 2026-04-11 13:06 | 42.63368 | 1.01272 | 38107 ft | 481 kts | 353° |
| 2026-04-11 13:07 | 42.70067 | 1.00538 | 38116 ft | 481 kts | 353° |
| 2026-04-11 13:07 | 42.76741 | 0.99806 | 38114 ft | 482 kts | 353° |
| 2026-04-11 13:08 | 42.83443 | 0.99069 | 38082 ft | 482 kts | 353° |
| 2026-04-11 13:08 | 42.90089 | 0.98338 | 38063 ft | 482 kts | 352° |
| 2026-04-11 13:09 | 42.96810 | 0.97597 | 38049 ft | 483 kts | 352° |
| 2026-04-11 13:09 | 43.03522 | 0.96856 | 38054 ft | 481 kts | 353° |
| 2026-04-11 13:10 | 43.10194 | 0.96117 | 38049 ft | 482 kts | 352° |
| 2026-04-11 13:10 | 43.16887 | 0.95373 | 38047 ft | 483 kts | 352° |
| 2026-04-11 13:11 | 43.23561 | 0.94631 | 38054 ft | 484 kts | 352° |
| 2026-04-11 13:11 | 43.30270 | 0.93883 | 38053 ft | 485 kts | 352° |
| 2026-04-11 13:12 | 43.37002 | 0.93131 | 38051 ft | 485 kts | 352° |
| 2026-04-11 13:12 | 43.43711 | 0.92380 | 38046 ft | 484 kts | 352° |
| 2026-04-11 13:13 | 43.50474 | 0.91620 | 38045 ft | 484 kts | 352° |
| 2026-04-11 13:13 | 43.57181 | 0.90866 | 38045 ft | 485 kts | 352° |
| 2026-04-11 13:14 | 43.63935 | 0.90104 | 38046 ft | 485 kts | 352° |
| 2026-04-11 13:14 | 43.70649 | 0.89346 | 38044 ft | 486 kts | 352° |
| 2026-04-11 13:15 | 43.77379 | 0.88584 | 38041 ft | 486 kts | 352° |
| 2026-04-11 13:15 | 43.84139 | 0.87816 | 38049 ft | 487 kts | 352° |
| 2026-04-11 13:16 | 43.90703 | 0.85901 | 38038 ft | 477 kts | 335° |
| 2026-04-11 13:16 | 43.96733 | 0.82166 | 38042 ft | 476 kts | 330° |
| 2026-04-11 13:17 | 44.02710 | 0.78316 | 38037 ft | 476 kts | 330° |
| 2026-04-11 13:17 | 44.08702 | 0.74443 | 38042 ft | 477 kts | 331° |
| 2026-04-11 13:18 | 44.14727 | 0.70540 | 38043 ft | 475 kts | 330° |
| 2026-04-11 13:18 | 44.20728 | 0.66640 | 38046 ft | 477 kts | 330° |
| 2026-04-11 13:19 | 44.26712 | 0.62745 | 38032 ft | 475 kts | 330° |
| 2026-04-11 13:19 | 44.32724 | 0.58820 | 38031 ft | 477 kts | 330° |
| 2026-04-11 13:20 | 44.38701 | 0.54910 | 38034 ft | 478 kts | 330° |
| 2026-04-11 13:20 | 44.44716 | 0.50966 | 38036 ft | 476 kts | 330° |
| 2026-04-11 13:21 | 44.50716 | 0.46992 | 38038 ft | 477 kts | 330° |
| 2026-04-11 13:21 | 44.56710 | 0.43011 | 38036 ft | 477 kts | 330° |
| 2026-04-11 13:22 | 44.62688 | 0.39032 | 38039 ft | 476 kts | 330° |
| 2026-04-11 13:22 | 44.68682 | 0.35034 | 38042 ft | 478 kts | 330° |
| 2026-04-11 13:23 | 44.74676 | 0.31028 | 38047 ft | 476 kts | 329° |
| 2026-04-11 13:23 | 44.80660 | 0.27017 | 38047 ft | 477 kts | 329° |
| 2026-04-11 13:24 | 44.86664 | 0.22985 | 38047 ft | 479 kts | 329° |
| 2026-04-11 13:24 | 44.92668 | 0.18943 | 38052 ft | 478 kts | 329° |
| 2026-04-11 13:25 | 44.98691 | 0.14880 | 38054 ft | 480 kts | 329° |
| 2026-04-11 13:25 | 45.04688 | 0.10825 | 38051 ft | 477 kts | 329° |
| 2026-04-11 13:26 | 45.10655 | 0.06779 | 38042 ft | 479 kts | 329° |
| 2026-04-11 13:26 | 45.16681 | 0.02685 | 38036 ft | 479 kts | 329° |
| 2026-04-11 13:27 | 45.22686 | -0.01405 | 38043 ft | 479 kts | 329° |
| 2026-04-11 13:27 | 45.28666 | -0.05488 | 38034 ft | 478 kts | 329° |
| 2026-04-11 13:28 | 45.34661 | -0.09591 | 38033 ft | 481 kts | 329° |
| 2026-04-11 13:28 | 45.40684 | -0.13722 | 38048 ft | 481 kts | 329° |
| 2026-04-11 13:29 | 45.46725 | -0.17875 | 38030 ft | 480 kts | 329° |
| 2026-04-11 13:29 | 45.52735 | -0.22018 | 38035 ft | 482 kts | 328° |
| 2026-04-11 13:30 | 45.58751 | -0.26173 | 38040 ft | 481 kts | 328° |
| 2026-04-11 13:30 | 45.64735 | -0.30365 | 38043 ft | 480 kts | 325° |
| 2026-04-11 13:31 | 45.70119 | -0.35848 | 38048 ft | 473 kts | 316° |
| 2026-04-11 13:31 | 45.75271 | -0.41650 | 38043 ft | 472 kts | 315° |
| 2026-04-11 13:32 | 45.80410 | -0.47457 | 38051 ft | 474 kts | 315° |
| 2026-04-11 13:32 | 45.85572 | -0.53303 | 38043 ft | 473 kts | 315° |
| 2026-04-11 13:33 | 45.90700 | -0.59123 | 38251 ft | 472 kts | 315° |
| 2026-04-11 13:33 | 45.93301 | -0.62082 | 38055 ft | 474 kts | 315° |
| 2026-04-11 13:33 | 45.95850 | -0.64983 | 38046 ft | 471 kts | 315° |
| 2026-04-11 13:34 | 46.01002 | -0.70862 | 38053 ft | 473 kts | 314° |
| 2026-04-11 13:34 | 46.06140 | -0.76737 | 38060 ft | 475 kts | 314° |
| 2026-04-11 13:35 | 46.11322 | -0.82676 | 38040 ft | 475 kts | 314° |
| 2026-04-11 13:35 | 46.16479 | -0.88604 | 38047 ft | 477 kts | 314° |
| 2026-04-11 13:36 | 46.21653 | -0.94563 | 38046 ft | 475 kts | 314° |
| 2026-04-11 13:36 | 46.26790 | -1.00497 | 38039 ft | 476 kts | 314° |
| 2026-04-11 13:37 | 46.31968 | -1.06494 | 38046 ft | 478 kts | 314° |
| 2026-04-11 13:37 | 46.37145 | -1.12502 | 38046 ft | 476 kts | 314° |
| 2026-04-11 13:38 | 46.42300 | -1.18500 | 38042 ft | 474 kts | 313° |
| 2026-04-11 13:38 | 46.47453 | -1.24513 | 38036 ft | 477 kts | 313° |
| 2026-04-11 13:39 | 46.52608 | -1.30541 | 38043 ft | 475 kts | 313° |
| 2026-04-11 13:39 | 46.57782 | -1.36610 | 38044 ft | 478 kts | 313° |
| 2026-04-11 13:40 | 46.63507 | -1.41683 | 38046 ft | 492 kts | 326° |
| 2026-04-11 13:40 | 46.69670 | -1.46037 | 38041 ft | 493 kts | 327° |
| 2026-04-11 13:41 | 46.75854 | -1.50411 | 38039 ft | 494 kts | 326° |
| 2026-04-11 13:41 | 46.82002 | -1.54778 | 38038 ft | 496 kts | 326° |
| 2026-04-11 13:42 | 46.88565 | -1.58214 | 38034 ft | 511 kts | 343° |
| 2026-04-11 13:42 | 46.95724 | -1.59270 | 38039 ft | 521 kts | 351° |
| 2026-04-11 13:43 | 47.02914 | -1.59980 | 38037 ft | 520 kts | 351° |
| 2026-04-11 13:43 | 47.10112 | -1.60702 | 38034 ft | 520 kts | 350° |
| 2026-04-11 13:44 | 47.17340 | -1.61441 | 38023 ft | 520 kts | 350° |
| 2026-04-11 13:44 | 47.24562 | -1.62405 | 38018 ft | 520 kts | 349° |
| 2026-04-11 13:45 | 47.31764 | -1.63392 | 38012 ft | 522 kts | 348° |
| 2026-04-11 13:45 | 47.38952 | -1.64389 | 38006 ft | 521 kts | 348° |
| 2026-04-11 13:46 | 47.46195 | -1.65426 | 37996 ft | 522 kts | 347° |
| 2026-04-11 13:46 | 47.51103 | -1.66129 | 38010 ft | 525 kts | 348° |
| 2026-04-11 13:47 | 47.58328 | -1.67162 | 38006 ft | 527 kts | 347° |
| 2026-04-11 13:47 | 47.65627 | -1.68206 | 38001 ft | 526 kts | 347° |
| 2026-04-11 13:48 | 47.72915 | -1.69251 | 38006 ft | 525 kts | 347° |
| 2026-04-11 13:48 | 47.80157 | -1.70293 | 37998 ft | 526 kts | 347° |
| 2026-04-11 13:49 | 47.87448 | -1.71345 | 37997 ft | 526 kts | 347° |
| 2026-04-11 13:49 | 47.94738 | -1.72399 | 37995 ft | 528 kts | 347° |
| 2026-04-11 13:50 | 48.02051 | -1.73459 | 37992 ft | 528 kts | 347° |
| 2026-04-11 13:50 | 48.09415 | -1.74227 | 37989 ft | 535 kts | 352° |
| 2026-04-11 13:51 | 48.16840 | -1.74315 | 37977 ft | 534 kts | 353° |
| 2026-04-11 13:51 | 48.24241 | -1.74392 | 37975 ft | 534 kts | 353° |
| 2026-04-11 13:52 | 48.31711 | -1.74475 | 37955 ft | 534 kts | 353° |
| 2026-04-11 13:52 | 48.39108 | -1.74561 | 37971 ft | 532 kts | 353° |
| 2026-04-11 13:53 | 48.46504 | -1.74648 | 37982 ft | 532 kts | 353° |
| 2026-04-11 13:53 | 48.53943 | -1.74739 | 37961 ft | 535 kts | 353° |
| 2026-04-11 13:54 | 48.61343 | -1.74829 | 37997 ft | 534 kts | 353° |
| 2026-04-11 13:54 | 48.68763 | -1.74919 | 37957 ft | 533 kts | 353° |
| 2026-04-11 13:55 | 48.76166 | -1.75010 | 37970 ft | 533 kts | 353° |
| 2026-04-11 13:55 | 48.83542 | -1.75101 | 37986 ft | 531 kts | 353° |
| 2026-04-11 13:56 | 48.90942 | -1.75193 | 37974 ft | 532 kts | 353° |
| 2026-04-11 13:56 | 48.98367 | -1.74988 | 37983 ft | 534 kts | 355° |
| 2026-04-11 13:57 | 49.05754 | -1.74675 | 37974 ft | 533 kts | 355° |
| 2026-04-11 13:57 | 49.13148 | -1.74375 | 37948 ft | 533 kts | 355° |
| 2026-04-11 13:58 | 49.20558 | -1.74082 | 37954 ft | 534 kts | 355° |
| 2026-04-11 13:58 | 49.28009 | -1.73789 | 37939 ft | 532 kts | 355° |
| 2026-04-11 13:59 | 49.35354 | -1.73504 | 37947 ft | 533 kts | 355° |
| 2026-04-11 13:59 | 49.42791 | -1.73216 | 37957 ft | 535 kts | 355° |
| 2026-04-11 14:00 | 49.50208 | -1.72928 | 37935 ft | 537 kts | 355° |
| 2026-04-11 14:00 | 49.61275 | -1.72481 | 37935 ft | 534 kts | 356° |
| 2026-04-11 14:01 | 49.68695 | -1.71859 | 37915 ft | 535 kts | 357° |
| 2026-04-11 14:01 | 49.76147 | -1.71207 | 37923 ft | 537 kts | 358° |
| 2026-04-11 14:02 | 49.83615 | -1.70562 | 37920 ft | 537 kts | 358° |
| 2026-04-11 14:02 | 49.91022 | -1.69925 | 37925 ft | 537 kts | 358° |
| 2026-04-11 14:03 | 49.98468 | -1.69188 | 37538 ft | 534 kts | 2° |
| 2026-04-11 14:03 | 50.02156 | -1.68105 | 36492 ft | 546 kts | 11° |
| 2026-04-11 14:03 | 50.05783 | -1.66448 | 35410 ft | 557 kts | 14° |
| 2026-04-11 14:04 | 50.09512 | -1.64633 | 34404 ft | 567 kts | 15° |
| 2026-04-11 14:04 | 50.13296 | -1.62781 | 33253 ft | 577 kts | 14° |
| 2026-04-11 14:04 | 50.17149 | -1.60898 | 32071 ft | 586 kts | 14° |
| 2026-04-11 14:04 | 50.21072 | -1.58978 | 30893 ft | 595 kts | 13° |
| 2026-04-11 14:05 | 50.25019 | -1.57047 | 29960 ft | 597 kts | 13° |
| 2026-04-11 14:05 | 50.28955 | -1.55116 | 29303 ft | 591 kts | 13° |
| 2026-04-11 14:05 | 50.32847 | -1.53206 | 28610 ft | 587 kts | 13° |
| 2026-04-11 14:05 | 50.36748 | -1.51289 | 27866 ft | 583 kts | 13° |
| 2026-04-11 14:06 | 50.40596 | -1.49397 | 27114 ft | 580 kts | 13° |
| 2026-04-11 14:06 | 50.44405 | -1.47522 | 26354 ft | 576 kts | 13° |
| 2026-04-11 14:06 | 50.48200 | -1.45650 | 25904 ft | 564 kts | 13° |
| 2026-04-11 14:06 | 50.51920 | -1.43781 | 25176 ft | 561 kts | 16° |
| 2026-04-11 14:07 | 50.55465 | -1.41388 | 24253 ft | 564 kts | 25° |
| 2026-04-11 14:07 | 50.58899 | -1.38514 | 23867 ft | 551 kts | 26° |
| 2026-04-11 14:07 | 50.62207 | -1.35674 | 23813 ft | 531 kts | 26° |
| 2026-04-11 14:07 | 50.65385 | -1.32937 | 23668 ft | 514 kts | 28° |
| 2026-04-11 14:08 | 50.68518 | -1.30238 | 23141 ft | 509 kts | 28° |
| 2026-04-11 14:08 | 50.71589 | -1.27587 | 22487 ft | 507 kts | 27° |
| 2026-04-11 14:08 | 50.74676 | -1.24919 | 21855 ft | 503 kts | 27° |
| 2026-04-11 14:08 | 50.77699 | -1.22268 | 21330 ft | 497 kts | 30° |
| 2026-04-11 14:09 | 50.80570 | -1.19346 | 20857 ft | 490 kts | 33° |
| 2026-04-11 14:09 | 50.83372 | -1.16402 | 20341 ft | 484 kts | 33° |
| 2026-04-11 14:09 | 50.86177 | -1.13459 | 19813 ft | 479 kts | 33° |
| 2026-04-11 14:09 | 50.88914 | -1.10594 | 19292 ft | 474 kts | 33° |
| 2026-04-11 14:10 | 50.91665 | -1.07720 | 18752 ft | 468 kts | 32° |
| 2026-04-11 14:10 | 50.94336 | -1.04931 | 18273 ft | 462 kts | 33° |
| 2026-04-11 14:10 | 50.97013 | -1.02137 | 17808 ft | 456 kts | 33° |
| 2026-04-11 14:10 | 50.99601 | -0.99306 | 17313 ft | 449 kts | 38° |
| 2026-04-11 14:11 | 51.01866 | -0.95972 | 16794 ft | 444 kts | 48° |
| 2026-04-11 14:11 | 51.03909 | -0.92413 | 16439 ft | 434 kts | 50° |
| 2026-04-11 14:11 | 51.05896 | -0.88892 | 16418 ft | 415 kts | 50° |
| 2026-04-11 14:11 | 51.07776 | -0.85553 | 16428 ft | 398 kts | 50° |
| 2026-04-11 14:12 | 51.09564 | -0.82371 | 16410 ft | 382 kts | 51° |
| 2026-04-11 14:12 | 51.11293 | -0.79288 | 16386 ft | 367 kts | 51° |
| 2026-04-11 14:12 | 51.12986 | -0.76261 | 16159 ft | 361 kts | 51° |
| 2026-04-11 14:12 | 51.14656 | -0.73269 | 15776 ft | 360 kts | 50° |
| 2026-04-11 14:13 | 51.16307 | -0.70311 | 15474 ft | 356 kts | 50° |
| 2026-04-11 14:13 | 51.17939 | -0.67383 | 15200 ft | 352 kts | 50° |
| 2026-04-11 14:13 | 51.19519 | -0.64546 | 15180 ft | 338 kts | 50° |
| 2026-04-11 14:13 | 51.21065 | -0.61767 | 15074 ft | 328 kts | 51° |
| 2026-04-11 14:14 | 51.22564 | -0.59067 | 14768 ft | 327 kts | 50° |
| 2026-04-11 14:14 | 51.24063 | -0.56361 | 14508 ft | 323 kts | 50° |
| 2026-04-11 14:14 | 51.25535 | -0.53705 | 14247 ft | 321 kts | 50° |
| 2026-04-11 14:14 | 51.27008 | -0.51045 | 13959 ft | 318 kts | 50° |
| 2026-04-11 14:15 | 51.28470 | -0.48403 | 13651 ft | 314 kts | 50° |
| 2026-04-11 14:15 | 51.29886 | -0.45751 | 13251 ft | 312 kts | 59° |
| 2026-04-11 14:15 | 51.30797 | -0.42684 | 12777 ft | 307 kts | 77° |
| 2026-04-11 14:15 | 51.31395 | -0.39443 | 12480 ft | 301 kts | 80° |
| 2026-04-11 14:16 | 51.31930 | -0.36239 | 12125 ft | 299 kts | 80° |
| 2026-04-11 14:16 | 51.32458 | -0.33038 | 11741 ft | 298 kts | 81° |
| 2026-04-11 14:16 | 51.32983 | -0.29866 | 11419 ft | 295 kts | 80° |
| 2026-04-11 14:16 | 51.33509 | -0.26694 | 11037 ft | 294 kts | 80° |
| 2026-04-11 14:17 | 51.34023 | -0.23549 | 10660 ft | 293 kts | 81° |
| 2026-04-11 14:17 | 51.34512 | -0.20416 | 10331 ft | 291 kts | 81° |
| 2026-04-11 14:17 | 51.34989 | -0.17262 | 9962 ft | 289 kts | 81° |
| 2026-04-11 14:17 | 51.35444 | -0.14134 | 9621 ft | 287 kts | 81° |
| 2026-04-11 14:18 | 51.35886 | -0.11066 | 9259 ft | 286 kts | 81° |
| 2026-04-11 14:18 | 51.36335 | -0.07950 | 8915 ft | 284 kts | 81° |
| 2026-04-11 14:18 | 51.36768 | -0.04858 | 8494 ft | 285 kts | 81° |
| 2026-04-11 14:18 | 51.37322 | -0.01859 | 7984 ft | 288 kts | 63° |
| 2026-04-11 14:19 | 51.38576 | 0.00572 | 7527 ft | 282 kts | 32° |
| 2026-04-11 14:19 | 51.40302 | 0.01822 | 7017 ft | 270 kts | 5° |
| 2026-04-11 14:19 | 51.42124 | 0.02321 | 6651 ft | 263 kts | 1° |
| 2026-04-11 14:19 | 51.43927 | 0.02650 | 6227 ft | 255 kts | 348° |
| 2026-04-11 14:20 | 51.45558 | 0.01893 | 5706 ft | 236 kts | 317° |
| 2026-04-11 14:20 | 51.46684 | 0.00139 | 5283 ft | 220 kts | 295° |
| 2026-04-11 14:20 | 51.47131 | -0.02059 | 5002 ft | 204 kts | 264° |
| 2026-04-11 14:20 | 51.46818 | -0.04246 | 4749 ft | 205 kts | 254° |
| 2026-04-11 14:21 | 51.46596 | -0.06475 | 4498 ft | 198 kts | 262° |
| 2026-04-11 14:21 | 51.46529 | -0.08690 | 4271 ft | 203 kts | 265° |
| 2026-04-11 14:21 | 51.46516 | -0.10945 | 4010 ft | 198 kts | 266° |
| 2026-04-11 14:21 | 51.46519 | -0.13090 | 3774 ft | 184 kts | 266° |
| 2026-04-11 14:22 | 51.46526 | -0.14983 | 3560 ft | 157 kts | 266° |
| 2026-04-11 14:22 | 51.46529 | -0.16671 | 3368 ft | 147 kts | 265° |
| 2026-04-11 14:22 | 51.46529 | -0.18261 | 3197 ft | 139 kts | 266° |
| 2026-04-11 14:22 | 51.46526 | -0.19787 | 3020 ft | 138 kts | 265° |
| 2026-04-11 14:23 | 51.46526 | -0.21326 | 2838 ft | 138 kts | 266° |
| 2026-04-11 14:23 | 51.46526 | -0.22864 | 2639 ft | 135 kts | 265° |
| 2026-04-11 14:23 | 51.46528 | -0.24281 | 2465 ft | 120 kts | 264° |
| 2026-04-11 14:23 | 51.46524 | -0.25594 | 2312 ft | 113 kts | 265° |
| 2026-04-11 14:24 | 51.46522 | -0.26856 | 2165 ft | 112 kts | 265° |
| 2026-04-11 14:24 | 51.46522 | -0.28088 | 2010 ft | 111 kts | 265° |
| 2026-04-11 14:24 | 51.46520 | -0.29333 | 1868 ft | 111 kts | 264° |
| 2026-04-11 14:24 | 51.46519 | -0.30583 | 1711 ft | 113 kts | 264° |
| 2026-04-11 14:25 | 51.46514 | -0.31833 | 1568 ft | 110 kts | 266° |
| 2026-04-11 14:25 | 51.46514 | -0.33077 | 1396 ft | 111 kts | 266° |
| 2026-04-11 14:25 | 51.46513 | -0.34332 | 1232 ft | 114 kts | 265° |
| 2026-04-11 14:25 | 51.46510 | -0.35594 | 1079 ft | 114 kts | 266° |
| 2026-04-11 14:26 | 51.46507 | -0.36867 | 919 ft | 114 kts | 265° |
| 2026-04-11 14:26 | 51.46503 | -0.38139 | 758 ft | 114 kts | 268° |
| 2026-04-11 14:26 | 51.46504 | -0.39427 | 608 ft | 117 kts | 267° |
| 2026-04-11 14:26 | 51.46488 | -0.40692 | 465 ft | 112 kts | 268° |
| 2026-04-11 14:27 | 51.46498 | -0.41936 | 287 ft | 108 kts | 269° |
| 2026-04-11 14:27 | 51.46492 | -0.43195 | 162 ft | 115 kts | 269° |
| 2026-04-11 14:27 | 51.46487 | -0.44382 | 84 ft | 90 kts | 269° |
| 2026-04-11 14:27 | 51.46488 | -0.45139 | 84 ft | 45 kts | 269° |
| 2026-04-11 14:28 | 51.46484 | -0.45459 | 84 ft | 23 kts | 270° |
| 2026-04-11 14:28 | 51.46489 | -0.45695 | 84 ft | 19 kts | 279° |
| 2026-04-11 14:28 | 51.46567 | -0.45863 | 84 ft | 19 kts | 326° |
| 2026-04-11 14:28 | 51.46603 | -0.45903 | 84 ft | 2 kts | 325° |
| 2026-04-11 14:29 | 51.46618 | -0.45919 | 84 ft | 0 kts | 325° |
| 2026-04-11 14:29 | 51.46624 | -0.45925 | 84 ft | 0 kts | 336° |
| 2026-04-11 14:29 | 51.46649 | -0.45955 | 84 ft | 4 kts | 306° |
| 2026-04-11 14:29 | 51.46656 | -0.46023 | 84 ft | 7 kts | 276° |
| 2026-04-11 14:30 | 51.46658 | -0.46110 | 84 ft | 8 kts | 270° |
| 2026-04-11 14:30 | 51.46658 | -0.46214 | 84 ft | 9 kts | 270° |
| 2026-04-11 14:30 | 51.46658 | -0.46322 | 84 ft | 3 kts | 270° |
| 2026-04-11 14:30 | 51.46658 | -0.46385 | 84 ft | 8 kts | 270° |
| 2026-04-11 14:31 | 51.46658 | -0.46492 | 84 ft | 10 kts | 270° |
| 2026-04-11 14:31 | 51.46657 | -0.46616 | 84 ft | 11 kts | 270° |
| 2026-04-11 14:31 | 51.46656 | -0.46755 | 84 ft | 13 kts | 269° |
| 2026-04-11 14:31 | 51.46655 | -0.46907 | 84 ft | 14 kts | 269° |
| 2026-04-11 14:32 | 51.46655 | -0.47057 | 84 ft | 9 kts | 271° |
| 2026-04-11 14:32 | 51.46655 | -0.47176 | 84 ft | 11 kts | 270° |
| 2026-04-11 14:32 | 51.46655 | -0.47299 | 84 ft | 7 kts | 270° |
| 2026-04-11 14:32 | 51.46655 | -0.47395 | 84 ft | 9 kts | 270° |
| 2026-04-11 14:33 | 51.46655 | -0.47512 | 84 ft | 11 kts | 270° |
| 2026-04-11 14:33 | 51.46653 | -0.47645 | 84 ft | 12 kts | 269° |
| 2026-04-11 14:33 | 51.46653 | -0.47762 | 84 ft | 8 kts | 273° |
| 2026-04-11 14:33 | 51.46675 | -0.47852 | 84 ft | 7 kts | 327° |
| 2026-04-11 14:34 | 51.46728 | -0.47870 | 84 ft | 8 kts | 359° |
| 2026-04-11 14:34 | 51.46795 | -0.47868 | 84 ft | 10 kts | 0° |
| 2026-04-11 14:34 | 51.46870 | -0.47870 | 84 ft | 11 kts | 359° |
| 2026-04-11 14:34 | 51.46946 | -0.47870 | 84 ft | 9 kts | 0° |
| 2026-04-11 14:35 | 51.47010 | -0.47870 | 84 ft | 7 kts | 360° |
| 2026-04-11 14:35 | 51.47045 | -0.47861 | 84 ft | 2 kts | 43° |
| 2026-04-11 14:35 | 51.47049 | -0.47827 | 84 ft | 4 kts | 86° |
| 2026-04-11 14:35 | 51.47050 | -0.47771 | 84 ft | 4 kts | 90° |
| 2026-04-11 14:36 | 51.47050 | -0.47726 | 84 ft | 0 kts | 90° |
| 2026-04-11 14:36 | 51.47050 | -0.47720 | 84 ft | 0 kts | 90° |